LICT Airport Information

Runway Information
Runway 13 Length 8852 ft width 148 ft
Elevation 10 ft Threshold 0 ft Heading 128
Runway 31 Length 8852 ft Width 148 ft
Elevation 24 ft Threshold 820 ft Heading 308
Airport Frequencies
Type APP Name APP Frequency 36.23 MHZ
Type APP Name APP Frequency 119.95 MHZ
Type GND Name GND Frequency 39.685 MHZ
Type TWR Name TWR Frequency 119.7 MHZ
Airport Navaids
Type VORTAC Name Trapani Frequency 108800 KHZ
Type NDB Name Trapani Frequency 318 KHZ
Airport Weather Information & NOTAM
ADDS - METARS form results

(0825 UTC 18 July 2018)
 
METAR text: LICT 180755Z 36011KT CAVOK 29/15 Q1015 RMK SKC VIS MIN 9999 WIND THR13 34012KT 310V020 BLU
Conditions at: LICT (TRAPANI/BIRGI (A, IT) observed 0755 UTC 18 July 2018
Temperature: 29.0°C (84°F)
Dewpoint: 15.0°C (59°F) [RH = 43%]
Pressure (altimeter): 29.97 inches Hg (1015.0 mb)
Winds: from the N (360 degrees) at 13 MPH (11 knots; 5.7 m/s)
Visibility: 6 or more miles (10+ km)
Ceiling: ceiling and visibility are OK
Clouds: unknown
Weather: no significant weather observed at this time